Time;durP1;ratioP1;P1;durP2;ratioP2;P2;SDS_P1;SDS_P2;PMS_P1;PMS_P2;Temp;Humidity;BMP_temperature;BMP_pressure;BME280_temperature;BME280_humidity;BME280_pressure;Samples;Min_cycle;Max_cycle;Signal;HPM_P1;HPM_P2
2023/11/30 00:02:26;;;;;;;6.30;4.37;;;1.80;99.90;;;2.64;100.00;96738.03;5017329;28;21020;-75
2023/11/30 00:04:54;;;;;;;6.00;4.30;;;1.80;99.90;;;2.64;100.00;96741.38;5015271;28;20460;-75
2023/11/30 00:07:22;;;;;;;7.10;4.20;;;2.00;99.90;;;2.66;100.00;96733.50;5013913;28;20907;-76
2023/11/30 00:09:51;;;;;;;6.80;5.10;;;1.90;99.90;;;2.67;100.00;96732.53;5013570;28;20510;-75
2023/11/30 00:12:19;;;;;;;7.47;5.07;;;1.90;99.90;;;2.69;100.00;96736.53;5015004;28;20528;-75
2023/11/30 00:14:47;;;;;;;9.77;5.20;;;1.90;99.90;;;2.71;100.00;96738.97;5013985;28;20942;-76
2023/11/30 00:17:16;;;;;;;7.23;4.70;;;1.90;99.90;;;2.70;100.00;96745.91;5016195;28;20470;-75
2023/11/30 00:19:46;;;;;;;7.33;4.70;;;1.90;99.90;;;2.70;100.00;96739.94;5017749;28;20759;-75
2023/11/30 00:22:14;;;;;;;5.80;4.70;;;1.80;99.90;;;2.69;100.00;96730.56;5014579;28;20472;-74
2023/11/30 00:24:43;;;;;;;5.70;4.47;;;1.80;99.90;;;2.65;100.00;96719.78;5015471;28;20463;-75
2023/11/30 00:27:11;;;;;;;5.37;4.30;;;1.80;99.90;;;2.67;100.00;96719.63;5015124;28;20471;-75
2023/11/30 00:29:40;;;;;;;7.67;4.83;;;1.80;99.90;;;2.66;100.00;96712.84;5014255;28;20459;-76
2023/11/30 00:32:08;;;;;;;6.00;4.13;;;1.80;99.90;;;2.61;100.00;96709.97;5011810;28;20532;-74
2023/11/30 00:34:36;;;;;;;7.20;5.30;;;1.70;99.90;;;2.62;100.00;96711.59;5014863;28;20601;-76
2023/11/30 00:37:06;;;;;;;6.17;4.53;;;1.70;99.90;;;2.66;100.00;96705.91;5013926;28;20499;-76
2023/11/30 00:39:35;;;;;;;7.83;4.43;;;1.80;99.90;;;2.66;100.00;96705.91;5013757;28;20473;-74
2023/11/30 00:42:03;;;;;;;4.90;3.67;;;1.80;99.90;;;2.61;100.00;96718.50;5013583;28;20462;-76
2023/11/30 00:44:32;;;;;;;5.53;4.70;;;1.90;99.90;;;2.59;100.00;96722.25;5011595;28;21025;-76
2023/11/30 00:47:00;;;;;;;5.53;3.80;;;1.80;99.90;;;2.62;100.00;96716.75;5012985;28;20494;-74
2023/11/30 00:49:29;;;;;;;5.83;4.13;;;1.80;99.90;;;2.63;100.00;96710.63;5014440;28;20995;-76
2023/11/30 00:51:57;;;;;;;4.70;3.40;;;1.90;99.90;;;2.60;100.00;96705.81;5014205;28;20875;-74
2023/11/30 00:54:27;;;;;;;7.23;3.90;;;1.80;99.90;;;2.62;100.00;96694.31;5011591;28;20482;-76
2023/11/30 00:56:55;;;;;;;7.97;4.40;;;1.80;99.90;;;2.66;100.00;96702.53;5014497;28;21258;-74
2023/11/30 00:59:24;;;;;;;7.40;4.70;;;1.80;99.90;;;2.67;100.00;96698.97;5015610;28;20498;-76
2023/11/30 01:01:52;;;;;;;8.33;4.80;;;1.80;99.90;;;2.69;100.00;96699.59;5015556;28;20473;-76
2023/11/30 01:04:21;;;;;;;6.60;4.57;;;1.80;99.90;;;2.70;100.00;96703.81;5014705;28;20500;-76
2023/11/30 01:06:49;;;;;;;7.57;4.47;;;1.80;99.90;;;2.70;100.00;96696.06;5014627;28;20583;-75
2023/11/30 01:09:18;;;;;;;6.77;4.80;;;1.90;99.90;;;2.70;100.00;96699.44;5015372;28;20561;-76
2023/11/30 01:11:48;;;;;;;6.07;4.57;;;2.00;99.90;;;2.74;100.00;96692.16;5015344;28;20472;-76
2023/11/30 01:14:16;;;;;;;5.93;4.00;;;2.00;99.90;;;2.78;100.00;96689.06;5015098;28;20553;-76
2023/11/30 01:16:45;;;;;;;5.40;3.63;;;2.00;99.90;;;2.78;100.00;96683.09;5018000;28;20467;-76
2023/11/30 01:19:13;;;;;;;5.63;3.97;;;2.00;99.90;;;2.74;100.00;96687.78;5016285;28;20487;-75
2023/11/30 01:21:42;;;;;;;5.80;3.50;;;1.90;99.90;;;2.70;100.00;96678.00;5021158;28;20555;-76
2023/11/30 01:24:10;;;;;;;7.50;4.40;;;1.90;99.90;;;2.70;100.00;96675.41;5019208;28;21019;-75
2023/11/30 01:26:40;;;;;;;4.83;4.00;;;2.00;99.90;;;2.70;100.00;96681.38;5018548;28;20566;-75
2023/11/30 01:29:09;;;;;;;4.13;3.73;;;1.90;99.90;;;2.69;100.00;96684.13;5017037;28;20522;-75
2023/11/30 01:31:38;;;;;;;6.20;3.27;;;2.00;99.90;;;2.68;100.00;96675.56;5017743;28;20525;-75
2023/11/30 01:34:06;;;;;;;5.50;4.10;;;1.90;99.90;;;2.67;100.00;96678.34;5016942;28;20505;-75
2023/11/30 01:36:34;;;;;;;5.40;3.80;;;1.80;99.90;;;2.66;100.00;96669.78;5019683;28;20598;-76
2023/11/30 01:39:03;;;;;;;5.17;3.67;;;1.90;99.90;;;2.66;100.00;96669.00;5018380;28;20809;-76
2023/11/30 01:41:31;;;;;;;4.60;3.50;;;1.80;99.90;;;2.67;100.00;96674.00;5017778;28;20550;-75
2023/11/30 01:44:00;;;;;;;4.93;3.70;;;1.80;99.90;;;2.67;100.00;96666.25;5018248;28;20578;-76
2023/11/30 01:46:30;;;;;;;5.30;3.87;;;1.80;99.90;;;2.69;100.00;96668.66;5017622;28;20480;-75
2023/11/30 01:49:00;;;;;;;5.70;4.17;;;1.80;99.90;;;2.72;100.00;96671.69;5018447;28;20467;-76
2023/11/30 01:51:31;;;;;;;6.90;3.83;;;1.90;99.90;;;2.74;100.00;96666.38;5017921;28;20468;-76
2023/11/30 01:54:01;;;;;;;4.30;3.53;;;1.90;99.90;;;2.76;100.00;96660.03;5020008;28;20454;-76
2023/11/30 01:56:31;;;;;;;5.50;3.70;;;1.90;99.90;;;2.78;100.00;96654.69;5019678;28;20466;-76
2023/11/30 01:59:01;;;;;;;4.17;3.20;;;1.90;99.90;;;2.78;100.00;96662.44;5022929;28;20833;-76
2023/11/30 02:01:32;;;;;;;12.43;4.30;;;1.90;99.90;;;2.78;100.00;96659.84;5019524;28;20470;-75
2023/11/30 02:04:11;;;;;;;7.27;4.10;;;1.90;99.90;;;2.79;100.00;96653.72;5019217;28;20984;-76
2023/11/30 02:06:40;;;;;;;5.20;3.93;;;1.90;99.90;;;2.76;100.00;96647.13;5020518;28;20516;-76
2023/11/30 02:09:10;;;;;;;6.60;3.70;;;1.90;99.90;;;2.74;100.00;96646.50;5019494;28;20460;-76
2023/11/30 02:11:39;;;;;;;9.03;4.17;;;1.90;99.90;;;2.73;100.00;96644.91;5018387;28;20509;-77
2023/11/30 02:14:08;;;;;;;19.60;4.10;;;1.90;99.90;;;2.69;100.00;96637.69;5018877;28;20460;-76
2023/11/30 02:16:38;;;;;;;12.53;4.47;;;1.90;99.90;;;2.67;100.00;96639.63;5018705;28;20463;-75
2023/11/30 02:19:06;;;;;;;13.50;4.60;;;1.90;99.90;;;2.68;100.00;96646.38;5019485;28;21669;-75
2023/11/30 02:21:35;;;;;;;26.80;4.97;;;1.90;99.90;;;2.69;100.00;96642.84;5017123;28;20479;-75
2023/11/30 02:24:07;;;;;;;11.73;4.17;;;1.90;99.90;;;2.70;100.00;96644.44;5019086;28;20500;-76
2023/11/30 02:26:35;;;;;;;7.50;4.53;;;1.90;99.90;;;2.70;100.00;96629.78;5019214;28;20544;-76
2023/11/30 02:29:03;;;;;;;8.80;4.40;;;1.90;99.90;;;2.72;100.00;96632.97;5020982;28;20463;-75
2023/11/30 02:31:32;;;;;;;11.33;5.00;;;1.90;99.90;;;2.69;100.00;96624.78;5019766;28;20469;-76
2023/11/30 02:34:00;;;;;;;11.23;4.57;;;1.90;99.90;;;2.67;100.00;96619.00;5017354;28;20499;-75
2023/11/30 02:36:29;;;;;;;9.93;4.33;;;1.90;99.90;;;2.68;100.00;96620.59;5018052;28;20467;-76
2023/11/30 02:38:58;;;;;;;10.10;4.20;;;1.80;99.90;;;2.70;100.00;96608.31;5017414;28;20586;-76
2023/11/30 02:41:29;;;;;;;8.63;4.43;;;1.80;99.90;;;2.67;100.00;96604.31;5017197;28;20476;-75
2023/11/30 02:43:57;;;;;;;10.50;5.40;;;1.80;99.90;;;2.66;100.00;96613.03;5017806;28;21969;-76
2023/11/30 02:46:26;;;;;;;12.67;5.10;;;1.80;99.90;;;2.70;100.00;96608.31;5019608;28;20495;-76
2023/11/30 02:48:54;;;;;;;15.90;5.33;;;1.90;99.90;;;2.70;100.00;96598.00;5018902;28;20976;-76
2023/11/30 02:51:23;;;;;;;15.13;5.10;;;1.90;99.90;;;2.76;100.00;96605.03;5016957;28;20458;-76
2023/11/30 02:53:51;;;;;;;12.50;5.13;;;1.90;99.90;;;2.76;100.00;96605.84;5016451;28;20893;-76
2023/11/30 02:56:20;;;;;;;14.60;5.27;;;1.90;99.90;;;2.79;100.00;96609.84;5018002;28;20959;-75
2023/11/30 02:58:49;;;;;;;21.60;6.50;;;2.00;99.90;;;2.82;100.00;96601.75;5018448;28;21017;-76
2023/11/30 03:01:18;;;;;;;11.83;4.80;;;2.00;99.90;;;2.81;100.00;96602.75;5017357;28;20472;-76
2023/11/30 03:03:46;;;;;;;15.07;5.40;;;2.00;99.90;;;2.74;100.00;96599.28;5017078;28;20958;-76
2023/11/30 03:06:16;;;;;;;9.87;4.57;;;1.80;99.90;;;2.72;100.00;96589.09;5017854;28;20547;-75
2023/11/30 03:08:46;;;;;;;9.87;4.33;;;1.90;99.90;;;2.74;100.00;96589.72;5018566;28;21224;-75
2023/11/30 03:11:15;;;;;;;10.60;4.67;;;1.90;99.90;;;2.77;100.00;96591.19;5018854;28;21043;-76
2023/11/30 03:13:43;;;;;;;12.40;5.00;;;1.90;99.90;;;2.80;100.00;96595.97;5017662;28;20465;-76
2023/11/30 03:16:13;;;;;;;17.80;5.57;;;1.90;99.90;;;2.82;100.00;96583.69;5015934;28;20548;-75
2023/11/30 03:18:42;;;;;;;11.73;4.50;;;2.00;99.90;;;2.81;100.00;96593.22;5018724;28;20468;-76
2023/11/30 03:21:17;;;;;;;9.10;4.60;;;2.00;99.90;;;2.82;100.00;96589.66;5018432;28;20488;-75
2023/11/30 03:23:46;;;;;;;14.40;6.27;;;2.00;99.90;;;2.82;100.00;96586.28;5017200;28;20471;-75
2023/11/30 03:26:17;;;;;;;9.73;4.43;;;2.10;99.90;;;2.79;100.00;96587.44;5016222;28;20497;-75
2023/11/30 03:28:46;;;;;;;13.97;5.80;;;2.00;99.90;;;2.83;100.00;96587.88;5016820;28;20842;-75
2023/11/30 03:31:16;;;;;;;13.70;5.57;;;2.10;99.90;;;2.86;100.00;96587.53;5017077;28;20516;-75
2023/11/30 03:33:44;;;;;;;16.70;6.13;;;2.10;99.90;;;2.86;100.00;96582.38;5017917;28;20967;-76
2023/11/30 03:36:13;;;;;;;18.77;6.00;;;2.10;99.90;;;2.88;100.00;96583.03;5015760;28;21365;-75
2023/11/30 03:38:41;;;;;;;14.13;5.97;;;2.10;99.90;;;2.86;100.00;96578.03;5016734;28;20487;-76
2023/11/30 03:41:10;;;;;;;16.50;5.93;;;2.10;99.90;;;2.87;100.00;96573.66;5015414;28;20832;-76
2023/11/30 03:43:38;;;;;;;10.63;5.23;;;2.10;99.90;;;2.88;100.00;96580.44;5016251;28;21278;-76
2023/11/30 03:46:07;;;;;;;11.17;4.43;;;2.10;99.90;;;2.89;100.00;96567.34;5015127;28;20516;-76
2023/11/30 03:48:37;;;;;;;12.03;5.30;;;2.10;99.90;;;2.88;100.00;96570.88;5016159;28;20459;-76
2023/11/30 03:51:06;;;;;;;11.47;5.50;;;2.10;99.90;;;2.84;100.00;96571.44;5016938;28;20460;-75
2023/11/30 03:53:34;;;;;;;10.47;4.93;;;2.00;99.90;;;2.83;100.00;96583.53;5017450;28;20468;-76
2023/11/30 03:56:03;;;;;;;11.23;5.43;;;2.00;99.90;;;2.85;100.00;96581.56;5018104;28;20554;-75
2023/11/30 03:58:32;;;;;;;15.47;5.50;;;2.00;99.90;;;2.86;100.00;96572.84;5015993;28;20970;-75
2023/11/30 04:01:00;;;;;;;14.97;5.27;;;2.10;99.90;;;2.86;100.00;96572.84;5017891;28;20456;-75
2023/11/30 04:03:29;;;;;;;14.47;5.67;;;2.10;99.90;;;2.84;100.00;96571.44;5017615;28;20530;-75
2023/11/30 04:05:59;;;;;;;13.83;4.83;;;2.10;99.90;;;2.81;100.00;96569.97;5016010;28;20502;-76
2023/11/30 04:08:27;;;;;;;9.40;5.17;;;2.00;99.90;;;2.80;100.00;96562.44;5015227;28;20580;-76
2023/11/30 04:10:56;;;;;;;15.40;5.90;;;2.00;99.90;;;2.84;100.00;96563.69;5019677;28;20462;-77
2023/11/30 04:13:24;;;;;;;10.23;5.17;;;2.00;99.90;;;2.88;100.00;96564.94;5017376;28;21028;-75
2023/11/30 04:15:52;;;;;;;11.80;5.47;;;2.10;99.90;;;2.88;100.00;96560.56;5016583;28;20945;-76
2023/11/30 04:18:21;;;;;;;13.13;5.57;;;2.10;99.90;;;2.87;100.00;96558.97;5016588;28;20817;-76
2023/11/30 04:20:50;;;;;;;17.90;6.07;;;2.10;99.90;;;2.90;100.00;96560.41;5016117;28;20454;-76
2023/11/30 04:23:20;;;;;;;13.40;5.33;;;2.10;99.90;;;2.89;100.00;96561.38;5016506;28;20456;-77
2023/11/30 04:25:48;;;;;;;23.77;6.60;;;2.10;99.90;;;2.90;100.00;96552.66;5013809;28;20495;-76
2023/11/30 04:28:16;;;;;;;12.83;5.17;;;2.20;99.90;;;2.87;100.00;96550.44;5014659;28;20518;-76
2023/11/30 04:30:45;;;;;;;17.73;6.07;;;2.20;99.90;;;2.89;100.00;96543.31;5014888;28;20463;-76
2023/11/30 04:33:13;;;;;;;13.80;6.07;;;2.10;99.90;;;2.90;100.00;96539.75;5016577;28;20470;-76
2023/11/30 04:35:42;;;;;;;17.33;5.37;;;2.20;99.90;;;2.90;100.00;96542.34;5016191;28;20473;-76
2023/11/30 04:38:10;;;;;;;11.97;5.20;;;2.10;99.90;;;2.91;100.00;96549.91;5014012;28;20470;-76
2023/11/30 04:40:40;;;;;;;11.00;5.10;;;2.20;99.90;;;2.92;100.00;96548.91;5015113;28;20463;-76
2023/11/30 04:43:08;;;;;;;11.10;5.37;;;2.10;99.90;;;2.95;100.00;96545.19;5014468;28;20461;-77
2023/11/30 04:45:37;;;;;;;17.70;6.90;;;2.10;99.90;;;2.92;100.00;96553.28;5015644;28;20574;-76
2023/11/30 04:48:06;;;;;;;13.80;6.00;;;2.10;99.90;;;2.93;100.00;96547.94;5014584;28;20462;-76
2023/11/30 04:50:35;;;;;;;15.00;5.00;;;2.10;99.90;;;2.95;100.00;96545.19;5017118;28;20474;-76
2023/11/30 04:53:03;;;;;;;18.67;5.90;;;2.10;99.90;;;2.96;100.00;96541.63;5016878;28;20465;-76
2023/11/30 04:55:32;;;;;;;16.57;4.70;;;2.10;99.90;;;2.94;100.00;96552.13;5016065;28;21170;-76
2023/11/30 04:58:02;;;;;;;13.47;5.80;;;2.10;99.90;;;2.95;100.00;96545.97;5018126;28;20498;-77
2023/11/30 05:00:30;;;;;;;19.90;6.70;;;2.20;99.90;;;2.96;100.00;96552.75;5015868;28;20471;-76
2023/11/30 05:02:59;;;;;;;17.63;5.93;;;2.20;99.90;;;2.97;100.00;96548.41;5016242;28;20550;-76
2023/11/30 05:05:27;;;;;;;18.30;6.50;;;2.20;99.90;;;2.98;100.00;96557.75;5016647;28;20491;-76
2023/11/30 05:07:56;;;;;;;15.40;6.30;;;2.20;99.90;;;2.97;100.00;96549.19;5015816;28;20514;-76
2023/11/30 05:10:24;;;;;;;17.17;7.70;;;2.30;99.90;;;2.95;100.00;96556.31;5015269;28;20463;-76
2023/11/30 05:12:53;;;;;;;17.10;7.47;;;2.30;99.90;;;2.96;100.00;96559.69;5015345;28;20458;-76
2023/11/30 05:15:22;;;;;;;16.30;8.27;;;2.30;99.90;;;2.96;100.00;96557.09;5017606;28;20495;-76
2023/11/30 05:17:51;;;;;;;15.40;7.30;;;2.30;99.90;;;2.96;100.00;96554.53;5015622;28;20980;-76
2023/11/30 05:20:19;;;;;;;11.60;6.17;;;2.30;99.90;;;2.94;100.00;96549.56;5017099;28;20460;-76
2023/11/30 05:22:48;;;;;;;13.60;6.53;;;2.30;99.90;;;2.95;100.00;96545.19;5012472;28;20518;-76
2023/11/30 05:25:16;;;;;;;13.73;7.10;;;2.30;99.90;;;2.99;100.00;96549.00;5013165;28;20492;-76
2023/11/30 05:27:45;;;;;;;18.07;8.00;;;2.30;99.90;;;2.97;100.00;96553.56;5015078;28;20464;-76
2023/11/30 05:30:13;;;;;;;14.70;7.53;;;2.30;99.90;;;3.00;100.00;96553.19;5012147;28;20458;-76
2023/11/30 05:32:43;;;;;;;18.30;7.37;;;2.30;99.90;;;2.98;100.00;96550.81;5014557;28;20465;-76
2023/11/30 05:35:12;;;;;;;16.00;7.70;;;2.30;99.90;;;3.01;100.00;96545.28;5013575;28;20510;-76
2023/11/30 05:37:40;;;;;;;16.30;8.90;;;2.30;99.90;;;2.98;100.00;96534.53;5015080;28;20472;-77
2023/11/30 05:40:11;;;;;;;16.10;8.13;;;2.30;99.90;;;2.98;100.00;96529.34;5015798;28;20461;-76
2023/11/30 05:42:41;;;;;;;12.70;6.87;;;2.20;99.90;;;3.01;100.00;96531.59;5013807;28;20469;-77
2023/11/30 05:45:09;;;;;;;11.47;6.40;;;2.20;99.90;;;3.03;100.00;96532.19;5014791;28;20509;-77
2023/11/30 05:47:38;;;;;;;17.07;7.50;;;2.30;99.90;;;3.02;100.00;96528.00;5015395;28;20495;-76
2023/11/30 05:50:10;;;;;;;16.30;7.80;;;2.30;99.90;;;3.05;100.00;96530.25;5009838;28;20996;-74
2023/11/30 05:52:39;;;;;;;22.27;10.13;;;2.40;99.90;;;3.03;100.00;96521.88;5012118;28;20482;-76
2023/11/30 05:55:09;;;;;;;17.07;7.97;;;2.30;99.90;;;3.07;100.00;96520.53;5013685;28;20464;-76
2023/11/30 05:57:37;;;;;;;18.80;8.37;;;2.30;99.90;;;3.08;100.00;96519.56;5013031;28;20461;-78
2023/11/30 06:00:10;;;;;;;15.00;6.70;;;2.30;99.90;;;3.07;100.00;96509.41;5014510;28;20570;-76
2023/11/30 06:02:39;;;;;;;17.40;7.80;;;2.30;99.90;;;3.09;100.00;96510.81;5012217;28;20472;-77
2023/11/30 06:05:09;;;;;;;17.73;8.00;;;2.30;99.90;;;3.07;100.00;96496.50;5014081;28;20475;-73
2023/11/30 06:07:38;;;;;;;14.33;7.53;;;2.20;99.90;;;3.03;100.00;96501.22;5017443;28;20511;-77
2023/11/30 06:10:09;;;;;;;18.80;8.60;;;2.30;99.90;;;3.04;100.00;96495.06;5019945;28;20455;-76
2023/11/30 06:12:39;;;;;;;13.70;7.30;;;2.30;99.90;;;3.09;100.00;96507.47;5019331;28;20478;-76
2023/11/30 06:15:10;;;;;;;12.67;7.83;;;2.30;99.90;;;3.03;100.00;96506.38;5020364;28;20517;-76
2023/11/30 06:17:39;;;;;;;12.50;7.20;;;2.30;99.90;;;3.07;100.00;96507.63;5021588;28;20503;-76
2023/11/30 06:20:12;;;;;;;12.90;6.40;;;2.30;99.90;;;3.02;100.00;96502.97;5020032;28;20460;-76
2023/11/30 06:22:41;;;;;;;16.90;7.30;;;2.30;99.90;;;3.08;100.00;96500.69;5018194;28;20468;-77
2023/11/30 06:25:09;;;;;;;10.60;6.50;;;2.30;99.90;;;3.08;100.00;96492.94;5018846;28;20464;-77
2023/11/30 06:27:38;;;;;;;12.27;6.30;;;2.30;99.90;;;3.05;100.00;96501.84;5016330;28;20495;-76
2023/11/30 06:30:08;;;;;;;12.70;7.13;;;2.30;99.90;;;3.07;100.00;96502.47;5019300;28;20461;-77
2023/11/30 06:32:37;;;;;;;14.43;7.73;;;2.30;99.90;;;3.03;100.00;96506.38;5017695;28;20537;-76
2023/11/30 06:35:08;;;;;;;13.30;7.30;;;2.30;99.90;;;3.04;100.00;96501.03;5017539;28;20480;-77
2023/11/30 06:37:36;;;;;;;14.20;8.17;;;2.30;99.90;;;3.04;100.00;96498.47;5017681;28;20472;-77
2023/11/30 06:40:07;;;;;;;10.00;6.33;;;2.30;99.90;;;3.06;100.00;96500.84;5017055;28;20493;-77
2023/11/30 06:42:35;;;;;;;13.67;7.43;;;2.30;99.90;;;3.03;100.00;96496.84;5019869;28;20454;-77
2023/11/30 06:45:05;;;;;;;13.50;7.10;;;2.30;99.90;;;3.02;100.00;96500.41;5018547;28;20486;-77
2023/11/30 06:47:33;;;;;;;11.47;6.47;;;2.20;99.90;;;3.02;100.00;96499.59;5017635;28;20853;-76
2023/11/30 06:50:02;;;;;;;9.23;6.60;;;2.30;99.90;;;3.03;100.00;96501.22;5019350;28;20467;-77
2023/11/30 06:52:32;;;;;;;13.67;6.40;;;2.30;99.90;;;3.03;100.00;96501.22;5017064;28;20463;-76
2023/11/30 06:55:02;;;;;;;17.63;7.80;;;2.30;99.90;;;3.02;100.00;96500.41;5018136;28;20463;-77
2023/11/30 06:57:30;;;;;;;11.83;6.50;;;2.40;99.90;;;3.01;100.00;96503.19;5017507;28;20488;-77
2023/11/30 06:59:59;;;;;;;8.90;5.80;;;2.30;99.90;;;3.00;100.00;96506.72;5008275;28;20464;-77
2023/11/30 07:02:27;;;;;;;14.47;7.10;;;2.20;99.90;;;2.98;100.00;96508.72;5016660;28;20814;-77
2023/11/30 07:04:56;;;;;;;12.97;6.20;;;2.20;99.90;;;2.96;100.00;96506.28;5014149;28;20824;-77
2023/11/30 07:07:24;;;;;;;66.07;27.23;;;2.20;99.90;;;2.93;100.00;96495.50;5017696;28;20508;-76
2023/11/30 07:10:06;;;;;;;9.93;6.20;;;2.20;99.90;;;2.90;100.00;96490.72;5016058;28;20468;-76
2023/11/30 07:12:34;;;;;;;10.60;5.90;;;2.20;99.90;;;2.91;100.00;96502.66;5013907;28;20472;-76
2023/11/30 07:15:03;;;;;;;12.40;6.80;;;2.20;99.90;;;2.94;100.00;96497.94;5014674;28;20898;-76
2023/11/30 07:17:32;;;;;;;13.53;6.83;;;2.20;99.90;;;2.84;100.00;96486.25;5014250;28;20951;-76
2023/11/30 07:20:01;;;;;;;10.70;7.00;;;2.30;99.90;;;2.86;100.00;96481.72;5015156;28;20548;-76
2023/11/30 07:22:30;;;;;;;11.33;6.57;;;2.20;99.90;;;2.87;100.00;96493.66;5012172;28;20527;-76
2023/11/30 07:24:58;;;;;;;12.50;6.50;;;2.20;99.90;;;2.89;100.00;96504.59;5012891;28;21348;-76
2023/11/30 07:27:29;;;;;;;16.77;5.80;;;2.10;99.90;;;2.87;100.00;96514.31;5014639;28;20537;-76
2023/11/30 07:29:57;;;;;;;10.07;6.27;;;2.20;99.90;;;2.87;100.00;96511.72;5015639;28;20471;-77
2023/11/30 07:32:26;;;;;;;18.03;7.97;;;2.10;99.90;;;2.86;100.00;96513.50;5014079;28;20481;-77
2023/11/30 07:34:54;;;;;;;9.73;6.17;;;2.10;99.90;;;2.89;100.00;96499.44;5014220;28;20579;-76
2023/11/30 07:37:23;;;;;;;26.67;12.50;;;2.10;99.90;;;2.84;100.00;96494.00;5017567;28;20494;-76
2023/11/30 07:39:52;;;;;;;14.57;7.73;;;2.10;99.90;;;2.88;100.00;96482.34;5015791;28;20575;-76
2023/11/30 07:42:20;;;;;;;11.00;6.83;;;2.10;99.90;;;2.89;100.00;96473.63;5018162;28;20542;-76
2023/11/30 07:45:04;;;;;;;10.27;5.90;;;2.10;99.90;;;2.86;100.00;96476.56;5018870;28;20542;-77
2023/11/30 07:47:35;;;;;;;10.53;6.33;;;2.10;99.90;;;2.86;100.00;96479.13;5017438;28;20509;-77
2023/11/30 07:50:05;;;;;;;10.13;5.97;;;2.10;99.90;;;2.81;100.00;96471.91;5017197;28;20601;-77
2023/11/30 07:52:35;;;;;;;10.97;6.07;;;2.20;99.90;;;2.82;100.00;96476.09;5016399;28;20468;-77
2023/11/30 07:55:04;;;;;;;14.20;6.00;;;2.10;99.90;;;2.80;100.00;96475.50;5015417;28;20544;-77
2023/11/30 07:57:33;;;;;;;11.50;6.70;;;2.10;99.90;;;2.81;100.00;96489.22;5015740;28;20556;-76
2023/11/30 08:00:06;;;;;;;19.30;6.13;;;2.10;99.90;;;2.84;100.00;96494.00;5013935;28;20499;-76
2023/11/30 08:02:35;;;;;;;7.53;5.00;;;2.10;99.90;;;2.82;100.00;96498.53;5015995;28;20470;-76
2023/11/30 08:05:05;;;;;;;10.03;6.10;;;2.10;99.90;;;2.82;100.00;96506.28;5011011;28;20466;-77
2023/11/30 08:07:35;;;;;;;17.07;6.27;;;2.10;99.90;;;2.80;100.00;96495.34;5014897;28;21214;-76
2023/11/30 08:10:06;;;;;;;10.77;6.00;;;2.00;99.90;;;2.80;100.00;96498.72;5015475;28;20456;-76
2023/11/30 08:12:35;;;;;;;11.77;6.60;;;2.00;99.90;;;2.87;100.00;96502.19;5018278;28;20466;-77
2023/11/30 08:15:06;;;;;;;10.30;6.10;;;2.10;99.90;;;2.86;100.00;96510.09;5017525;28;20462;-77
2023/11/30 08:17:35;;;;;;;11.33;6.03;;;2.20;99.90;;;2.86;100.00;96499.78;5017309;28;20506;-76
2023/11/30 08:20:09;;;;;;;8.67;5.17;;;2.30;99.90;;;2.87;100.00;96496.22;5017008;28;20465;-76
2023/11/30 08:22:37;;;;;;;9.50;6.03;;;2.20;99.90;;;2.88;100.00;96496.03;5015298;28;20475;-76
2023/11/30 08:25:07;;;;;;;9.83;5.63;;;2.20;99.90;;;2.91;100.00;96500.06;5015896;28;21237;-76
2023/11/30 08:27:36;;;;;;;10.07;6.13;;;2.20;99.90;;;2.85;100.00;96505.91;5017242;28;20493;-76
2023/11/30 08:30:09;;;;;;;9.33;6.47;;;2.30;99.90;;;2.90;100.00;96501.03;5013754;28;20494;-76
2023/11/30 08:32:38;;;;;;;11.07;6.70;;;2.30;99.90;;;2.90;100.00;96504.41;5013254;28;20456;-76
2023/11/30 08:35:07;;;;;;;13.90;6.73;;;2.20;99.90;;;2.89;100.00;96505.41;5012766;28;20467;-77
2023/11/30 08:37:36;;;;;;;12.13;5.90;;;2.20;99.90;;;2.82;100.00;96508.84;5013064;28;20662;-76
2023/11/30 08:40:07;;;;;;;10.63;5.40;;;2.30;99.90;;;2.75;100.00;96508.75;5012469;28;20464;-76
2023/11/30 08:42:37;;;;;;;9.50;5.53;;;2.30;99.90;;;2.78;100.00;96505.81;5016406;28;20548;-77
2023/11/30 08:45:08;;;;;;;8.80;5.03;;;2.20;99.90;;;2.73;100.00;96504.75;5014670;28;20523;-76
2023/11/30 08:47:37;;;;;;;9.73;5.97;;;2.00;99.90;;;2.76;100.00;96509.56;5014606;28;20874;-77
2023/11/30 08:50:08;;;;;;;11.07;5.83;;;2.10;99.90;;;2.74;100.00;96506.38;5013152;28;20463;-76
2023/11/30 08:52:38;;;;;;;14.33;8.03;;;2.00;99.90;;;2.74;100.00;96498.63;5013018;28;20941;-76
2023/11/30 08:55:07;;;;;;;17.00;6.70;;;2.00;99.90;;;2.70;100.00;96497.38;5012376;28;20462;-76
2023/11/30 08:57:35;;;;;;;11.30;5.60;;;2.00;99.90;;;2.74;100.00;96496.06;5012847;28;21138;-76
2023/11/30 09:00:11;;;;;;;11.40;6.53;;;1.90;99.90;;;2.74;100.00;96490.88;5010619;28;20552;-76
2023/11/30 09:02:41;;;;;;;16.67;7.07;;;2.00;99.90;;;2.73;100.00;96491.84;5013956;28;20465;-76
2023/11/30 09:05:12;;;;;;;12.90;6.30;;;1.90;99.90;;;2.76;100.00;96488.91;5012506;28;20459;-76
2023/11/30 09:07:40;;;;;;;23.73;8.00;;;1.90;99.90;;;2.75;100.00;96487.31;5014668;28;20585;-76
2023/11/30 09:10:10;;;;;;;17.10;8.60;;;2.00;99.90;;;2.73;100.00;96478.97;5012822;28;20485;-76
2023/11/30 09:12:39;;;;;;;11.90;7.00;;;2.00;99.90;;;2.74;100.00;96483.91;5014820;28;20491;-76
2023/11/30 09:15:12;;;;;;;15.53;7.93;;;2.10;99.90;;;2.80;100.00;96485.00;5013271;28;20497;-76
2023/11/30 09:17:41;;;;;;;13.63;6.97;;;2.10;99.90;;;2.85;100.00;96482.69;5012982;28;20459;-76
2023/11/30 09:20:10;;;;;;;12.73;6.17;;;2.10;99.90;;;2.84;100.00;96475.94;5012552;28;20490;-76
2023/11/30 09:22:39;;;;;;;11.80;7.07;;;2.10;99.90;;;2.79;100.00;96485.97;5014703;28;20578;-76
2023/11/30 09:25:10;;;;;;;13.80;6.83;;;2.00;99.90;;;2.83;100.00;96487.22;5013115;28;21291;-76
2023/11/30 09:27:38;;;;;;;21.80;6.73;;;2.10;99.90;;;2.83;100.00;96482.88;5012307;28;20523;-77
2023/11/30 09:30:11;;;;;;;13.20;6.43;;;2.10;99.90;;;2.80;100.00;96480.66;5012388;28;20583;-77
2023/11/30 09:32:40;;;;;;;12.63;6.80;;;2.10;99.90;;;2.79;100.00;96480.81;5013200;28;20493;-76
2023/11/30 09:35:09;;;;;;;24.43;6.87;;;2.00;99.90;;;2.76;100.00;96476.03;5014310;28;20489;-77
2023/11/30 09:37:39;;;;;;;14.40;7.00;;;2.00;99.90;;;2.82;100.00;96477.88;5010800;28;20559;-77
2023/11/30 09:40:10;;;;;;;15.50;7.33;;;2.10;99.90;;;2.82;100.00;96480.47;5016046;28;20466;-77
2023/11/30 09:42:39;;;;;;;11.13;6.50;;;2.10;99.90;;;2.76;100.00;96476.03;5015741;28;20470;-76
2023/11/30 09:45:10;;;;;;;16.20;6.20;;;2.00;99.90;;;2.72;100.00;96474.75;5017015;28;20515;-76
2023/11/30 09:47:39;;;;;;;10.90;5.67;;;2.10;99.90;;;2.72;100.00;96467.81;5016740;28;20580;-76
2023/11/30 09:50:09;;;;;;;26.13;11.50;;;2.10;99.90;;;2.72;100.00;96473.00;5015980;28;21059;-77
2023/11/30 09:52:37;;;;;;;12.67;5.20;;;2.00;99.90;;;2.73;100.00;96473.78;5014760;28;20532;-76
2023/11/30 09:55:08;;;;;;;15.13;6.43;;;2.00;99.90;;;2.76;100.00;96478.59;5018845;28;20460;-77
2023/11/30 09:57:39;;;;;;;11.90;5.57;;;2.10;99.90;;;2.72;100.00;96477.34;5020710;28;20463;-77
2023/11/30 10:00:12;;;;;;;11.23;5.33;;;2.10;99.90;;;2.70;100.00;96466.41;5017605;28;20497;-77
2023/11/30 10:02:53;;;;;;;15.40;5.30;;;2.00;99.90;;;2.66;100.00;96473.69;5019061;28;20560;-78
2023/11/30 10:05:22;;;;;;;10.17;4.90;;;2.00;99.90;;;2.64;100.00;96472.28;5018460;28;21024;-76
2023/11/30 10:07:50;;;;;;;14.10;5.80;;;2.00;99.90;;;2.66;100.00;96472.91;5018577;28;20999;-77
2023/11/30 10:10:19;;;;;;;8.40;4.70;;;2.00;99.90;;;2.67;100.00;96469.34;5019612;28;20806;-77
2023/11/30 10:12:47;;;;;;;8.90;5.23;;;2.00;99.90;;;2.76;100.00;96470.84;5017965;28;20475;-77
2023/11/30 10:15:18;;;;;;;15.50;4.83;;;2.10;99.90;;;2.79;100.00;96484.22;5018057;28;20476;-77
2023/11/30 10:17:47;;;;;;;12.20;4.80;;;2.10;99.90;;;2.78;100.00;96487.75;5019408;28;20467;-77
2023/11/30 10:20:16;;;;;;;9.33;4.57;;;2.20;99.90;;;2.78;100.00;96490.34;5020052;28;20467;-78
2023/11/30 10:22:45;;;;;;;10.20;4.37;;;2.10;99.90;;;2.78;100.00;96485.19;5017477;28;20530;-77
2023/11/30 10:25:13;;;;;;;10.70;4.63;;;2.10;99.90;;;2.81;100.00;96482.25;5018608;28;20538;-77
2023/11/30 10:27:46;;;;;;;8.43;4.50;;;2.10;99.90;;;2.84;100.00;96481.09;5017187;28;20467;-77
2023/11/30 10:30:18;;;;;;;6.43;3.60;;;2.10;99.90;;;2.87;100.00;96475.59;5019209;28;20465;-77